Reese River Valley, Nevada Weather observations

Data are for 10 minute period ending at time listed.
 Day   Time   Solar   Ave.   Ave.  Ave.  Vector  Max.   Baro.   Total    
  of    of     Rad.   Air    Rel.  Wind   Wind   Wind  Press.  Precip.   
Year   Day            Temp.  Hum.  Speed  Dir.   Gust                    
2015   (PST)  Kw/m2    F      %     mph   deg.    mph    mb.     in.     
-------------------------------------------------------------------------
 209   16:30   0.50   77.4    19    8.1    27    12.1   817.5    0.00 
 209   16:40   0.47   77.9    17    5.4    44    10.7   817.5    0.00 
 209   16:50   0.43   77.5    18    7.3    26    15.2   817.5    0.00 
 209   17:00   0.39   77.4    17    6.8    14    10.7   817.5    0.00 
 209   17:10   0.36   77.6    18    5.2    27    10.6   817.6    0.00 
 209   17:20   0.32   77.3    18    5.7     7    12.5   817.6    0.00 
 209   17:30   0.28   76.2    20    7.1   348    11.4   817.6    0.00 
 209   17:40   0.25   75.0    20    6.5   318    10.0   817.7    0.00 
 209   17:50   0.21   75.5    19    5.9   320    10.7   817.7    0.00 
 209   18:00   0.18   76.7    16    7.7   347    13.2   817.8    0.00 
 209   18:10   0.15   75.9    16    8.2   360    13.7   817.9    0.00 
 209   18:20   0.12   75.1    16    9.1     8    15.0   818.0    0.00 
 209   18:30   100.00  99999.0   99999  99999.0   99999   99999.0   99999.0   99999.00 
 209   18:40   100.00  99999.0   99999  99999.0   99999   99999.0   99999.0   99999.00 
 209   18:50   100.00  99999.0   99999  99999.0   99999   99999.0   99999.0   99999.00 
 209   19:00   100.00  99999.0   99999  99999.0   99999   99999.0   99999.0   99999.00 
 209   19:10   100.00  99999.0   99999  99999.0   99999   99999.0   99999.0   99999.00 
 209   19:20   100.00  99999.0   99999  99999.0   99999   99999.0   99999.0   99999.00 
 209   19:30   0.00   63.3    26    3.5   335     4.7   819.0    0.00 
 209   19:40   0.00   61.7    26    4.4   335     6.2   819.1    0.00 
 209   19:50   0.00   62.4    25    4.4   349     6.2   819.2    0.00 
 209   20:00   0.00   61.5    26    4.2    35     5.6   819.3    0.00 
 209   20:10   0.00   62.0    24    6.5     5     8.1   819.4    0.00 
 209   20:20   0.00   63.4    22    6.8   351     8.3   819.6    0.00 
 209   20:30   0.00   62.2    23    5.0   347     6.6   819.7    0.00 
 209   20:40   0.00   60.8    24    3.8   339     4.7   819.8    0.00 
 209   20:50   0.00   59.8    25    3.3   338     4.5   819.9    0.00 
 209   21:00   0.00   58.9    27    3.2    56     6.3   819.9    0.00 
 209   21:10   0.00   56.2    29    4.5   148     5.5   820.0    0.00 
 209   21:20   0.00   53.7    28    4.1   163     5.0   819.9    0.00 
 209   21:30   0.00   53.5    27    4.7   172     5.6   819.9    0.00 
 209   21:40   0.00   50.5    39    5.3   205     7.1   819.9    0.00 
 209   21:50   0.00   51.9    31    5.6   170     7.7   819.8    0.00 
 209   22:00   0.00   52.0    30    6.1   160     7.3   819.8    0.00 
 209   22:10   0.00   50.1    32    5.2   167     7.4   819.7    0.00 
 209   22:20   0.00   50.4    33    5.0   183     8.2   819.6    0.00 
 209   22:30   0.00   49.5    37    4.7   198     6.7   819.7    0.00 
 209   22:40   0.00   47.9    40    3.9   185     6.0   819.7    0.00 
 209   22:50   0.00   48.7    38    4.2   182     5.8   819.7    0.00 
 209   23:00   0.00   47.5    43    4.0   198     5.9   819.8    0.00 
 209   23:10   0.00   45.4    48    4.9   224     6.3   819.8    0.00 
 209   23:20   0.00   46.2    44    5.7   208     6.6   819.8    0.00 
 209   23:30   0.00   48.9    34    5.6   178     6.9   819.9    0.00 
 209   23:40   0.00   49.5    31    5.2   168     7.1   819.9    0.00 
 209   23:50   0.00   48.7    31    5.8   172     7.5   819.8    0.00 
 210    0:00   0.00   47.6    32    6.1   172     7.2   819.8    0.00 
 210    0:10   0.00   47.5    32    5.3   180     6.5   819.9    0.00 
 210    0:20   0.00   47.1    36    5.2   190     6.8   819.9    0.00 
 210    0:30   0.00   44.2    48    5.8   210     7.5   819.9    0.00 
 210    0:40   0.00   44.7    44    4.8   187     6.4   819.9    0.00 
 210    0:50   0.00   44.0    47    5.3   215     7.2   819.9    0.00 
 210    1:00   0.00   42.6    49    5.8   198     6.9   819.8    0.00 
 210    1:10   0.00   45.8    37    5.7   172     7.2   819.8    0.00 
 210    1:20   0.00   46.0    38    6.1   175     7.6   819.8    0.00 
 210    1:30   0.00   44.6    44    6.9   193     8.1   819.8    0.00 
 210    1:40   0.00   43.9    50    4.7   221     7.9   819.8    0.00 
 210    1:50   0.00   41.6    58    4.7   217     6.4   819.8    0.00 
 210    2:00   0.00   41.0    58    5.0   198     6.1   819.8    0.00 
 210    2:10   0.00   41.1    58    5.4   207     6.4   819.8    0.00 
 210    2:20   0.00   40.7    59    5.5   214     6.9   819.8    0.00 
 210    2:30   0.00   40.5    60    5.6   223     7.4   819.8    0.00 
 210    2:40   0.00   40.4    59    5.0   199     5.7   819.9    0.00 
 210    2:50   0.00   41.4    53    5.2   195     5.9   819.9    0.00 
 210    3:00   0.00   40.0    62    4.3   216     6.9   820.0    0.00 
 210    3:10   0.00   38.9    66    1.7   246     4.4   820.1    0.00 
 210    3:20   0.00   39.3    63    2.8   192     6.5   820.1    0.00 
 210    3:30   0.00   39.7    61    5.8   215     7.2   820.2    0.00 
 210    3:40   0.00   39.3    63    5.3   227     6.0   820.3    0.00 
 210    3:50   0.00   39.2    63    5.4   220     6.3   820.2    0.00 
 210    4:00   0.00   39.2    62    5.2   201     6.6   820.3    0.00 
 210    4:10   0.00   39.1    62    4.4   201     7.4   820.3    0.00 
 210    4:20   0.00   38.7    63    5.0   209     7.7   820.4    0.00 
 210    4:30   0.00   39.1    62    5.1   202     6.5   820.5    0.00 
 210    4:40   0.00   39.3    60    4.5   191     7.7   820.5    0.00 
 210    4:50   0.01   38.8    60    5.5   200     7.7   820.6    0.00 
 210    5:00   0.01   38.8    62    3.6   230     5.4   820.8    0.00 
 210    5:10   0.01   38.4    65    4.0   209     5.7   820.8    0.00 
 210    5:20   0.02   38.8    62    4.7   196     6.1   820.9    0.00 
 210    5:30   0.07   40.8    58    5.0   198     6.7   820.9    0.00 
 210    5:40   0.11   42.7    58    4.9   218     6.8   820.9    0.00 
 210    5:50   0.14   44.5    56    5.4   236     7.5   820.9    0.00 
 210    6:00   0.17   46.5    55    4.2   232     6.2   821.0    0.00 
 210    6:10   0.21   49.3    51    3.8   224     6.1   821.0    0.00 
 210    6:20   0.24   51.6    47    5.1   232     6.8   821.1    0.00 
 210    6:30   0.28   53.3    46    4.9   235     7.7   821.1    0.00 
 210    6:40   0.31   55.6    43    4.7   238     6.6   821.2    0.00 
 210    6:50   0.35   57.5    41    4.2   248     5.9   821.4    0.00 
 210    7:00   0.39   58.7    41    3.5   263     5.1   821.5    0.00 
 210    7:10   0.42   60.3    36    3.3   263     4.7   821.6    0.00 
 210    7:20   0.46   61.7    33    2.4   275     3.4   821.7    0.00 
 210    7:30   0.50   63.0    29    2.2   315     3.3   821.8    0.00 
 210    7:40   0.53   64.2    23    1.6   331     2.6   821.8    0.00 
 210    7:50   0.57   65.6    20    1.5     2     2.5   821.8    0.00 
 210    8:00   0.61   66.1    23    2.2    41     3.3   821.9    0.00 
 210    8:10   0.64   67.2    22    1.9    51     3.1   821.8    0.00 
 210    8:20   0.67   68.5    20    1.7    58     2.6   821.8    0.00 
 210    8:30   0.71   69.7    19    1.8    79     3.0   821.7    0.00 
 210    8:40   0.74   70.7    17    1.5    85     3.4   821.7    0.00 
 210    8:50   0.77   71.6    17    1.0   306     4.7   821.6    0.00 
 210    9:00   0.80   71.4    20    3.1    35     5.4   821.6    0.00 
 210    9:10   0.82   71.0    21    4.2    36     7.2   821.6    0.00 
 210    9:20   0.85   71.6    20    3.4    35     6.5   821.6    0.00 
 210    9:30   0.88   72.0    21    4.4    38     7.9   821.5    0.00 
 210    9:40   0.90   72.8    19    4.0    34     8.0   821.5    0.00 
 210    9:50   0.92   73.7    19    4.4    11     8.3   821.5    0.00 
 210   10:00   0.94   74.2    18    4.6    29     7.7   821.4    0.00 
 210   10:10   0.96   75.3    20    4.4    25     9.7   821.4    0.00 
 210   10:20   0.98   75.8    20    4.7    27     8.6   821.3    0.00 
 210   10:30   1.00   76.9    20    5.3    11     9.6   821.3    0.00 
 210   10:40   1.01   77.4    21    5.2    26     8.7   821.2    0.00 
 210   10:50   1.03   77.7    19    5.8    21     8.9   821.1    0.00 
 210   11:00   1.04   78.3    19    5.5     9     9.9   821.0    0.00 
 210   11:10   1.05   79.3    16    4.7     5     9.8   820.9    0.00 
 210   11:20   1.05   79.4    17    4.3    21     8.8   820.8    0.00 
 210   11:30   1.06   80.1    17    6.4   354    15.3   820.7    0.00 
 210   11:40   1.06   80.1    18    6.9   357    13.4   820.5    0.00 
 210   11:50   1.07   80.7    19    4.9    40     8.6   820.5    0.00 
 210   12:00   1.07   81.3    16    5.9     0     9.8   820.4    0.00 
 210   12:10   1.06   81.8    16    4.1    34    11.0   820.3    0.00 
 210   12:20   1.06   82.3    15    4.6   310    10.7   820.2    0.00 
 210   12:30   1.05   82.7    16    5.2    61    11.0   820.2    0.00 
 210   12:40   1.05   82.7    16    6.7   359    16.9   820.1    0.00 
 210   12:50   1.04   81.8    18    8.1   332    15.6   820.1    0.00 
 210   13:00   1.03   83.3    14    3.6   320     7.2   820.1    0.00 
 210   13:10   1.02   83.3    20    4.6   248    10.7   819.9    0.00 
 210   13:20   1.01   84.8    16    3.4    49     9.3   819.9    0.00 
 210   13:30   0.99   83.8    15    6.8   321    19.4   819.8    0.00 
 210   13:40   0.98   83.3    16    7.5   357    19.8   819.8    0.00 
 210   13:50   0.96   83.7    16    7.0   357    13.7   819.7    0.00 
 210   14:00   0.94   84.3    13    4.5    18    11.8   819.7    0.00 
 210   14:10   0.92   84.5    12    6.3   165    11.3   819.5    0.00 
 210   14:20   0.89   86.4    13    3.7    97     6.6   819.4    0.00 
 210   14:30   0.87   84.5    16    6.7    24    11.2   819.4    0.00 
 210   14:40   0.85   84.1    16    4.7    73     9.1   819.2    0.00 
 210   14:50   0.82   85.7    13    4.9    94     9.3   819.1    0.00 
 210   15:00   0.79   84.7    14    4.7   346    14.6   819.1    0.00 
 210   15:10   0.76   85.0    15    5.9    15    14.2   819.1    0.00 
 210   15:20   0.73   85.1    14    6.7   354    14.2   819.0    0.00 
 210   15:30   0.71   84.7    13    7.4   338    15.0   819.0    0.00 
 210   15:40   0.67   86.8    10    1.0   195     5.1   818.9    0.00 
 210   15:50   0.62   88.5    12    2.6   193     9.3   818.8    0.00 
 210   16:00   0.60   86.3    14    5.0   328    17.2   818.8    0.00 
 210   16:10   0.57   83.9    16    6.1   294    13.4   818.7    0.00 
 210   16:20   0.54   83.1    15    5.8   247    13.4   818.7    0.00 

Return to Reese River Valley graphs page.


Western Regional Climate Center,wrcc@dri.edu